createdAt,value
2022-11-16T00:01:00.473Z,19.77
2022-11-16T00:03:28.081Z,19.67
2022-11-16T00:05:59.419Z,19.45
2022-11-16T00:08:27.159Z,19.75
2022-11-16T00:10:54.551Z,18.60
2022-11-16T00:13:21.958Z,19.80
2022-11-16T00:15:58.258Z,17.98
2022-11-16T00:18:25.681Z,18.50
2022-11-16T00:20:53.057Z,19.50
2022-11-16T00:23:20.478Z,18.75
2022-11-16T00:25:47.829Z,18.80
2022-11-16T00:28:15.179Z,20.60
2022-11-16T00:30:42.620Z,19.00
2022-11-16T00:33:13.840Z,18.95
2022-11-16T00:35:41.586Z,17.67
2022-11-16T00:38:08.997Z,18.85
2022-11-16T00:40:36.416Z,19.60
2022-11-16T00:43:03.795Z,18.45
2022-11-16T00:45:31.646Z,19.88
2022-11-16T00:48:00.629Z,19.27
2022-11-16T00:50:28.947Z,19.45
2022-11-16T00:52:56.747Z,19.88
2022-11-16T00:55:24.564Z,20.40
2022-11-16T00:57:51.986Z,20.65
2022-11-16T01:00:21.381Z,19.75
2022-11-16T01:02:48.777Z,18.70
2022-11-16T01:05:16.137Z,18.63
2022-11-16T01:07:43.597Z,18.95
2022-11-16T01:10:15.707Z,19.38
2022-11-16T01:12:43.504Z,19.13
2022-11-16T01:15:11.061Z,19.02
2022-11-16T01:17:39.702Z,19.20
2022-11-16T01:20:10.281Z,19.98
2022-11-16T01:22:38.168Z,19.17
2022-11-16T01:25:05.765Z,19.25
2022-11-16T01:27:33.290Z,18.58
2022-11-16T01:30:03.568Z,19.02
2022-11-16T01:32:32.247Z,19.95
2022-11-16T01:34:59.675Z,19.00
2022-11-16T01:37:30.598Z,18.58
2022-11-16T01:39:58.133Z,19.30
2022-11-16T01:42:27.749Z,19.35
2022-11-16T01:45:04.370Z,19.60
2022-11-16T01:47:32.984Z,18.63
2022-11-16T01:50:09.541Z,18.83
2022-11-16T01:52:40.757Z,18.90
2022-11-16T01:55:08.796Z,19.55
2022-11-16T01:57:48.293Z,18.08
2022-11-16T02:00:16.855Z,19.30
2022-11-16T02:02:55.681Z,17.52
2022-11-16T02:05:52.526Z,18.38
2022-11-16T02:08:47.059Z,19.63
2022-11-16T02:11:14.707Z,19.38
2022-11-16T02:13:51.370Z,18.38
2022-11-16T02:16:31.408Z,18.98
2022-11-16T02:18:59.016Z,19.95
2022-11-16T02:21:39.906Z,19.20
2022-11-16T02:24:17.100Z,20.20
2022-11-16T02:26:44.565Z,20.10
2022-11-16T02:29:30.275Z,21.42
2022-11-16T02:32:03.871Z,20.95
2022-11-16T02:34:45.760Z,20.60
2022-11-16T02:37:15.802Z,20.85
2022-11-16T02:39:44.860Z,21.27
2022-11-16T02:42:15.756Z,22.55
2022-11-16T02:44:45.912Z,21.55
2022-11-16T02:47:17.635Z,22.63
2022-11-16T02:49:48.232Z,23.13
2022-11-16T02:52:16.254Z,22.08
2022-11-16T02:54:43.674Z,23.50
2022-11-16T02:57:12.244Z,22.55
2022-11-16T02:59:47.681Z,22.98
2022-11-16T03:02:24.289Z,21.50
2022-11-16T03:04:57.274Z,22.33
2022-11-16T03:07:28.064Z,22.05
2022-11-16T03:09:57.315Z,22.88
2022-11-16T03:12:26.202Z,22.60
2022-11-16T03:14:59.837Z,21.52
2022-11-16T03:17:32.157Z,21.52
2022-11-16T03:20:03.036Z,20.98
2022-11-16T03:22:39.702Z,21.20
2022-11-16T03:25:08.107Z,20.33
2022-11-16T03:27:38.699Z,19.35
2022-11-16T03:30:24.130Z,19.10
2022-11-16T03:32:54.298Z,19.05
2022-11-16T03:35:27.617Z,18.80
2022-11-16T03:37:57.660Z,18.88
2022-11-16T03:40:28.847Z,18.58
2022-11-16T03:42:57.166Z,18.23
2022-11-16T03:45:25.066Z,17.88
2022-11-16T03:47:53.963Z,17.27
2022-11-16T03:50:22.151Z,17.98
2022-11-16T03:52:49.753Z,18.50
2022-11-16T03:55:17.211Z,18.35
2022-11-16T03:57:45.693Z,18.77
2022-11-16T04:00:14.363Z,17.88
2022-11-16T04:02:42.679Z,18.25
2022-11-16T04:05:35.173Z,18.25
2022-11-16T04:08:21.179Z,19.63
2022-11-16T04:11:07.330Z,19.15
2022-11-16T04:13:53.977Z,18.27
2022-11-16T04:16:39.993Z,19.38
2022-11-16T04:19:28.287Z,19.27
2022-11-16T04:22:20.519Z,18.88
2022-11-16T04:24:50.642Z,18.75
2022-11-16T04:27:37.348Z,19.42
2022-11-16T04:30:05.635Z,18.20
2022-11-16T04:32:53.714Z,18.92
2022-11-16T04:35:40.489Z,18.60
2022-11-16T04:38:10.492Z,19.08
2022-11-16T04:40:38.462Z,19.92
2022-11-16T04:43:06.224Z,19.38
2022-11-16T04:45:56.273Z,18.75
2022-11-16T04:48:27.946Z,18.88
2022-11-16T04:50:56.191Z,19.08
2022-11-16T04:53:27.128Z,19.35
2022-11-16T04:56:24.023Z,19.58
2022-11-16T04:58:51.922Z,19.77
2022-11-16T05:01:39.550Z,21.58
2022-11-16T05:04:07.860Z,19.10
2022-11-16T05:06:35.722Z,20.17
2022-11-16T05:09:03.412Z,20.65
2022-11-16T05:11:31.078Z,19.48
2022-11-16T05:13:59.905Z,20.92
2022-11-16T05:16:28.389Z,22.02
2022-11-16T05:19:14.309Z,20.52
2022-11-16T05:21:42.643Z,20.40
2022-11-16T05:24:29.495Z,21.20
2022-11-16T05:26:56.969Z,21.30
2022-11-16T05:29:24.410Z,20.75
2022-11-16T05:31:51.933Z,21.40
2022-11-16T05:34:19.455Z,21.90
2022-11-16T05:36:46.818Z,20.63
2022-11-16T05:39:14.406Z,21.08
2022-11-16T05:41:42.875Z,21.88
2022-11-16T05:44:10.414Z,21.48
2022-11-16T05:46:38.741Z,21.40
2022-11-16T05:49:09.208Z,21.10
2022-11-16T05:51:37.911Z,21.42
2022-11-16T05:54:05.737Z,21.50
2022-11-16T05:56:34.094Z,21.95
2022-11-16T05:59:02.028Z,21.08
2022-11-16T06:01:29.661Z,21.60
2022-11-16T06:04:00.418Z,21.77
2022-11-16T06:06:28.850Z,22.45
2022-11-16T06:08:57.603Z,20.90
2022-11-16T06:11:31.375Z,20.60
2022-11-16T06:14:02.002Z,21.90
2022-11-16T06:16:29.389Z,21.23
2022-11-16T06:18:56.978Z,20.80
2022-11-16T06:21:24.772Z,20.90
2022-11-16T06:23:53.628Z,20.33
2022-11-16T06:26:22.335Z,21.05
2022-11-16T06:28:50.570Z,21.90
2022-11-16T06:31:18.053Z,21.25
2022-11-16T06:33:46.196Z,21.10
2022-11-16T06:36:21.633Z,20.75
2022-11-16T06:38:50.905Z,20.73
2022-11-16T06:41:19.721Z,20.85
2022-11-16T06:43:50.112Z,20.95
2022-11-16T06:46:21.154Z,20.75
2022-11-16T06:48:48.980Z,20.48
2022-11-16T06:51:16.478Z,22.02
2022-11-16T06:53:44.155Z,22.35
2022-11-16T06:56:13.352Z,22.75
2022-11-16T06:58:45.174Z,21.95
2022-11-16T07:01:14.561Z,21.73
2022-11-16T07:03:44.075Z,21.75
2022-11-16T07:06:13.185Z,21.52
2022-11-16T07:08:43.275Z,20.42
2022-11-16T07:11:12.448Z,21.63
2022-11-16T07:13:39.959Z,22.50
2022-11-16T07:16:10.413Z,22.42
2022-11-16T07:18:43.227Z,24.05
2022-11-16T07:21:12.324Z,23.40
2022-11-16T07:23:40.125Z,23.25
2022-11-16T07:26:10.717Z,23.38
2022-11-16T07:28:48.546Z,24.25
2022-11-16T07:31:19.982Z,23.23
2022-11-16T07:33:47.940Z,24.85
2022-11-16T07:36:33.790Z,23.55
2022-11-16T07:39:01.989Z,21.52
2022-11-16T07:41:29.813Z,21.48
2022-11-16T07:44:12.373Z,23.17
2022-11-16T07:46:47.428Z,21.80
2022-11-16T07:49:17.260Z,21.17
2022-11-16T07:51:50.470Z,21.20
2022-11-16T07:54:32.650Z,22.20
2022-11-16T07:57:00.067Z,22.48
2022-11-16T07:59:28.557Z,23.38
2022-11-16T08:01:56.688Z,22.08
2022-11-16T08:04:24.195Z,23.75
2022-11-16T08:06:52.080Z,23.63
2022-11-16T08:09:21.170Z,22.85
2022-11-16T08:11:51.391Z,24.35
2022-11-16T08:14:19.630Z,23.92
2022-11-16T08:16:49.482Z,23.60
2022-11-16T08:19:18.121Z,24.65
2022-11-16T08:21:45.858Z,24.30
2022-11-16T08:24:14.733Z,25.02
2022-11-16T08:26:44.132Z,23.92
2022-11-16T08:29:15.179Z,24.15
2022-11-16T08:31:48.061Z,26.08
2022-11-16T08:34:19.195Z,24.90
2022-11-16T08:36:50.405Z,24.05
2022-11-16T08:39:20.507Z,24.50
2022-11-16T08:41:48.078Z,24.05
2022-11-16T08:44:15.838Z,23.48
2022-11-16T08:46:46.824Z,21.70
2022-11-16T08:49:48.276Z,22.80
2022-11-16T08:52:18.967Z,23.60
2022-11-16T08:54:47.313Z,22.88
2022-11-16T08:57:16.518Z,28.05
2022-11-16T08:59:45.443Z,28.30
2022-11-16T09:02:14.655Z,26.20
2022-11-16T09:04:42.425Z,24.30
2022-11-16T09:07:10.657Z,24.70
2022-11-16T09:09:38.178Z,24.77
2022-11-16T09:12:05.709Z,24.17
2022-11-16T09:14:33.372Z,23.77
2022-11-16T09:17:00.806Z,25.85
2022-11-16T09:19:28.222Z,22.42
2022-11-16T09:21:55.869Z,24.75
2022-11-16T09:24:23.203Z,24.45
2022-11-16T09:26:50.612Z,24.42
2022-11-16T09:29:17.969Z,24.45
2022-11-16T09:31:46.170Z,24.02
2022-11-16T09:34:13.525Z,22.23
2022-11-16T09:36:40.969Z,23.15
2022-11-16T09:41:58.905Z,22.05
2022-11-16T09:44:33.090Z,23.45
2022-11-16T09:47:01.888Z,21.13
2022-11-16T09:49:34.199Z,18.77
2022-11-16T09:52:03.912Z,20.65
2022-11-16T09:54:33.684Z,22.10
2022-11-16T09:57:05.638Z,22.95
2022-11-16T09:59:42.411Z,23.65
2022-11-16T10:02:45.189Z,21.65
2022-11-16T10:05:12.611Z,24.27
2022-11-16T10:07:48.409Z,24.85
2022-11-16T10:10:22.271Z,24.52
2022-11-16T10:12:52.673Z,24.63
2022-11-16T10:15:38.732Z,24.23
2022-11-16T10:18:12.483Z,23.95
2022-11-16T10:20:55.210Z,23.20
2022-11-16T10:23:25.604Z,26.33
2022-11-16T10:26:13.375Z,25.50
2022-11-16T10:28:43.835Z,22.55
2022-11-16T10:31:31.571Z,22.30
2022-11-16T10:33:59.778Z,21.95
2022-11-16T10:36:28.126Z,20.83
2022-11-16T10:39:00.286Z,22.90
2022-11-16T10:41:40.890Z,22.70
2022-11-16T10:44:22.489Z,23.17
2022-11-16T10:46:56.861Z,22.95
2022-11-16T10:49:42.991Z,23.97
2022-11-16T10:52:10.463Z,23.60
2022-11-16T10:54:42.882Z,23.17
2022-11-16T10:57:14.209Z,26.15
2022-11-16T10:59:46.559Z,23.50
2022-11-16T11:02:26.211Z,25.20
2022-11-16T11:05:16.862Z,22.60
2022-11-16T11:07:54.054Z,23.02
2022-11-16T11:10:28.598Z,23.23
2022-11-16T11:13:11.094Z,23.20
2022-11-16T11:15:42.525Z,24.25
2022-11-16T11:18:24.951Z,24.40
2022-11-16T11:20:58.576Z,23.52
2022-11-16T11:23:27.099Z,23.15
2022-11-16T11:25:56.027Z,24.63
2022-11-16T11:28:23.474Z,24.40
2022-11-16T11:31:06.130Z,24.25
2022-11-16T11:33:35.970Z,24.88
2022-11-16T11:36:08.050Z,26.45
2022-11-16T11:38:36.047Z,26.23
2022-11-16T11:41:05.325Z,26.45
2022-11-16T11:43:34.381Z,25.05
2022-11-16T11:46:16.225Z,23.00
2022-11-16T11:48:52.285Z,25.40
2022-11-16T11:51:28.505Z,23.20
2022-11-16T11:53:59.949Z,26.80
2022-11-16T11:56:30.264Z,23.83
2022-11-16T11:58:58.021Z,23.83
2022-11-16T12:01:40.414Z,25.17
2022-11-16T12:04:26.584Z,23.67
2022-11-16T12:07:03.093Z,28.25
2022-11-16T12:09:35.775Z,26.33
2022-11-16T12:12:21.757Z,23.63
2022-11-16T12:15:07.778Z,24.42
2022-11-16T12:17:53.489Z,26.23
2022-11-16T12:20:20.934Z,25.63
2022-11-16T12:22:51.392Z,23.38
2022-11-16T12:25:18.798Z,24.35
2022-11-16T12:27:49.251Z,24.63
2022-11-16T12:30:19.075Z,23.45
2022-11-16T12:32:58.605Z,23.55
2022-11-16T12:35:25.986Z,23.25
2022-11-16T12:37:53.323Z,24.13
2022-11-16T12:40:20.719Z,22.65
2022-11-16T12:43:00.480Z,22.75
2022-11-16T12:45:42.850Z,25.02
2022-11-16T12:48:29.023Z,25.48
2022-11-16T12:50:56.460Z,23.65
2022-11-16T12:53:56.133Z,23.88
2022-11-16T12:56:23.508Z,24.48
2022-11-16T12:58:56.712Z,23.90
2022-11-16T13:01:30.240Z,24.50
2022-11-16T13:04:11.002Z,23.63
2022-11-16T13:06:44.971Z,24.30
2022-11-16T13:09:17.301Z,22.63
2022-11-16T13:11:52.982Z,24.23
2022-11-16T13:14:21.855Z,25.40
2022-11-16T13:16:49.964Z,25.33
2022-11-16T13:19:18.136Z,24.58
2022-11-16T13:21:48.263Z,24.13
2022-11-16T13:24:42.065Z,25.73
2022-11-16T13:27:25.338Z,26.52
2022-11-16T13:29:55.546Z,28.35
2022-11-16T13:32:25.961Z,28.20
2022-11-16T13:34:53.759Z,24.25
2022-11-16T13:37:39.416Z,25.05
2022-11-16T13:40:06.888Z,24.77
2022-11-16T13:42:35.872Z,25.67
2022-11-16T13:45:22.415Z,24.80
2022-11-16T13:47:53.885Z,26.33
2022-11-16T13:50:37.277Z,26.58
2022-11-16T13:53:57.558Z,28.65
2022-11-16T13:55:58.943Z,27.85
2022-11-16T13:58:27.731Z,30.02
2022-11-16T14:01:00.410Z,32.63
2022-11-16T14:03:38.521Z,36.83
2022-11-16T14:06:25.966Z,34.65
2022-11-16T14:08:57.459Z,32.20
2022-11-16T14:11:33.982Z,29.75
2022-11-16T14:14:05.595Z,30.30
2022-11-16T14:16:42.997Z,28.80
2022-11-16T14:19:29.398Z,27.35
2022-11-16T14:22:08.229Z,28.00
2022-11-16T14:24:40.395Z,29.70
2022-11-16T14:27:10.646Z,28.17
2022-11-16T14:29:45.090Z,30.05
2022-11-16T14:32:21.219Z,29.93
2022-11-16T14:34:49.754Z,32.05
2022-11-16T14:37:37.360Z,32.90
2022-11-16T14:40:08.841Z,31.40
2022-11-16T14:43:01.891Z,34.13
2022-11-16T14:45:36.652Z,36.75
2022-11-16T14:48:06.336Z,36.72
2022-11-16T14:50:40.626Z,37.67
2022-11-16T14:53:09.828Z,38.83
2022-11-16T14:55:42.183Z,42.60
2022-11-16T14:58:09.715Z,36.17
2022-11-16T15:00:37.574Z,41.13
2022-11-16T15:03:05.714Z,40.17
2022-11-16T15:05:37.639Z,36.88
2022-11-16T15:08:08.613Z,35.17
2022-11-16T15:10:36.437Z,33.33
2022-11-16T15:13:04.126Z,33.40
2022-11-16T15:15:32.265Z,34.63
2022-11-16T15:17:59.692Z,34.00
2022-11-16T15:20:28.467Z,35.63
2022-11-16T15:22:57.625Z,35.90
2022-11-16T15:25:28.300Z,36.30
2022-11-16T15:27:57.091Z,37.85
2022-11-16T15:30:29.099Z,38.05
2022-11-16T15:32:56.681Z,37.22
2022-11-16T15:35:33.745Z,39.28
2022-11-16T15:38:05.447Z,41.47
2022-11-16T15:40:33.915Z,38.08
2022-11-16T15:43:02.087Z,39.78
2022-11-16T15:45:30.445Z,45.03
2022-11-16T15:48:00.540Z,44.22
2022-11-16T15:50:30.827Z,37.55
2022-11-16T15:52:59.893Z,39.95
2022-11-16T15:55:36.865Z,39.97
2022-11-16T15:58:26.423Z,42.45
2022-11-16T16:00:54.424Z,44.50
2022-11-16T16:03:27.337Z,45.67
2022-11-16T16:05:55.370Z,47.05
2022-11-16T16:08:41.781Z,45.65
2022-11-16T16:11:10.703Z,42.95
2022-11-16T16:13:39.707Z,45.97
2022-11-16T16:16:19.152Z,51.45
2022-11-16T16:18:46.649Z,49.90
2022-11-16T16:21:14.449Z,57.13
2022-11-16T16:23:45.946Z,52.13
2022-11-16T16:26:14.029Z,47.97
2022-11-16T16:28:41.666Z,45.28
2022-11-16T16:31:09.534Z,38.85
2022-11-16T16:33:37.458Z,39.90
2022-11-16T16:36:05.341Z,41.55
2022-11-16T16:38:33.123Z,44.38
2022-11-16T16:41:04.404Z,46.42
2022-11-16T16:43:32.551Z,48.58
2022-11-16T16:46:04.576Z,60.28
2022-11-16T16:48:32.006Z,57.88
2022-11-16T16:50:59.358Z,91.63
2022-11-16T16:53:26.795Z,93.82
2022-11-16T16:55:54.165Z,85.88
2022-11-16T16:58:21.581Z,91.22
2022-11-16T17:00:49.230Z,87.78
2022-11-16T17:03:16.711Z,84.78
2022-11-16T17:05:44.636Z,90.80
2022-11-16T17:08:12.011Z,96.78
2022-11-16T17:10:39.487Z,99.93
2022-11-16T17:13:06.854Z,97.70
2022-11-16T17:15:34.358Z,93.28
2022-11-16T17:18:01.762Z,87.22
2022-11-16T17:20:29.200Z,73.82
2022-11-16T17:22:56.549Z,75.07
2022-11-16T17:25:23.933Z,69.85
2022-11-16T17:27:51.275Z,73.18
2022-11-16T17:30:18.701Z,73.43
2022-11-16T17:32:46.016Z,75.07
2022-11-16T17:35:13.377Z,78.22
2022-11-16T17:37:40.836Z,82.40
2022-11-16T17:40:08.568Z,75.80
2022-11-16T17:42:36.137Z,72.50
2022-11-16T17:45:03.840Z,73.53
2022-11-16T17:47:34.287Z,61.88
2022-11-16T17:50:01.940Z,58.83
2022-11-16T17:52:29.302Z,61.38
2022-11-16T17:54:56.743Z,63.33
2022-11-16T17:57:24.106Z,61.65
2022-11-16T17:59:51.578Z,66.40
2022-11-16T18:02:18.962Z,64.70
2022-11-16T18:04:50.941Z,64.88
2022-11-16T18:07:18.809Z,65.82
2022-11-16T18:09:46.193Z,67.10
2022-11-16T18:12:13.607Z,70.03
2022-11-16T18:14:42.383Z,67.65
2022-11-16T18:17:09.986Z,79.53
2022-11-16T18:19:37.436Z,83.38
2022-11-16T18:22:04.897Z,80.85
2022-11-16T18:24:34.962Z,74.43
2022-11-16T18:27:02.395Z,69.15
2022-11-16T18:29:29.748Z,71.68
2022-11-16T18:31:57.346Z,72.35
2022-11-16T18:34:24.749Z,74.70
2022-11-16T18:36:52.241Z,79.45
2022-11-16T18:39:19.742Z,74.95
2022-11-16T18:41:53.431Z,70.20
2022-11-16T18:44:22.142Z,72.97
2022-11-16T18:46:49.530Z,98.38
2022-11-16T18:49:16.937Z,87.20
2022-11-16T18:51:44.317Z,80.60
2022-11-16T18:54:11.752Z,74.53
2022-11-16T18:56:39.110Z,72.05
2022-11-16T18:59:06.573Z,72.15
2022-11-16T19:01:34.250Z,66.70
2022-11-16T19:04:01.812Z,66.55
2022-11-16T19:06:32.267Z,70.28
2022-11-16T19:09:00.043Z,64.88
2022-11-16T19:11:28.754Z,61.80
2022-11-16T19:13:57.621Z,61.58
2022-11-16T19:16:25.493Z,53.90
2022-11-16T19:18:53.175Z,55.92
2022-11-16T19:21:22.045Z,53.38
2022-11-16T19:23:50.798Z,58.70
2022-11-16T19:26:19.090Z,66.05
2022-11-16T19:28:47.146Z,59.83
2022-11-16T19:31:28.611Z,56.10
2022-11-16T19:33:57.291Z,51.85
2022-11-16T19:36:25.333Z,52.15
2022-11-16T19:38:52.994Z,51.38
2022-11-16T19:41:22.372Z,52.80
2022-11-16T19:43:52.546Z,54.78
2022-11-16T19:46:24.316Z,51.47
2022-11-16T19:48:52.158Z,46.83
2022-11-16T19:51:22.486Z,48.40
2022-11-16T19:53:49.885Z,47.30
2022-11-16T19:56:18.249Z,43.65
2022-11-16T19:58:45.720Z,46.88
2022-11-16T20:01:20.915Z,44.45
2022-11-16T20:06:15.774Z,41.50
2022-11-16T20:08:46.926Z,40.85
2022-11-16T20:11:15.425Z,40.63
2022-11-16T20:13:43.161Z,39.03
2022-11-16T20:16:11.624Z,40.80
2022-11-16T20:18:39.290Z,38.75
2022-11-16T20:21:07.373Z,38.80
2022-11-16T20:23:35.469Z,35.78
2022-11-16T20:26:06.578Z,37.97
2022-11-16T20:28:35.053Z,38.25
2022-11-16T20:31:05.237Z,39.80
2022-11-16T20:33:35.812Z,39.47
2022-11-16T20:36:07.693Z,38.90
2022-11-16T20:38:35.763Z,40.38
2022-11-16T20:41:13.286Z,42.20
2022-11-16T20:43:41.547Z,44.67
2022-11-16T20:46:09.829Z,44.97
2022-11-16T20:48:37.704Z,44.05
2022-11-16T20:51:05.813Z,44.67
2022-11-16T20:53:34.185Z,46.60
2022-11-16T20:56:02.729Z,44.33
2022-11-16T20:58:30.504Z,44.88
2022-11-16T21:01:00.954Z,47.85
2022-11-16T21:03:29.064Z,47.92
2022-11-16T21:05:56.584Z,48.17
2022-11-16T21:08:25.171Z,49.28
2022-11-16T21:10:52.795Z,48.38
2022-11-16T21:13:39.221Z,48.00
2022-11-16T21:16:08.485Z,49.30
2022-11-16T21:18:35.861Z,47.92
2022-11-16T21:21:04.698Z,47.90
2022-11-16T21:23:33.307Z,47.92
2022-11-16T21:26:05.316Z,49.45
2022-11-16T21:28:32.857Z,49.63
2022-11-16T21:31:01.351Z,46.70
2022-11-16T21:33:29.032Z,42.28
2022-11-16T21:35:56.761Z,45.25
2022-11-16T21:38:28.017Z,46.08
2022-11-16T21:40:55.453Z,44.65
2022-11-16T21:43:22.828Z,46.25
2022-11-16T21:45:51.116Z,46.53
2022-11-16T21:48:18.626Z,46.42
2022-11-16T21:50:46.025Z,44.70
2022-11-16T21:53:13.350Z,47.72
2022-11-16T21:55:40.782Z,47.33
2022-11-16T21:58:08.177Z,48.90
2022-11-16T22:00:35.564Z,49.08
2022-11-16T22:03:02.969Z,49.25
2022-11-16T22:05:48.918Z,47.55
2022-11-16T22:08:16.406Z,50.05
2022-11-16T22:10:43.810Z,49.70
2022-11-16T22:13:11.190Z,49.33
2022-11-16T22:15:38.535Z,50.83
2022-11-16T22:18:05.999Z,50.03
2022-11-16T22:20:33.475Z,52.35
2022-11-16T22:23:00.841Z,55.10
2022-11-16T22:25:28.345Z,53.42
2022-11-16T22:30:45.106Z,53.92
2022-11-16T22:33:16.089Z,52.42
2022-11-16T22:35:43.440Z,52.28
2022-11-16T22:38:10.978Z,51.58
2022-11-16T22:40:38.353Z,52.38
2022-11-16T22:43:05.702Z,53.63
2022-11-16T22:45:33.191Z,53.67
2022-11-16T22:48:00.535Z,54.15
2022-11-16T22:50:27.918Z,53.42
2022-11-16T22:52:58.855Z,52.97
2022-11-16T22:55:26.307Z,51.58
2022-11-16T22:57:53.870Z,51.97
2022-11-16T23:00:21.370Z,53.55
2022-11-16T23:02:48.824Z,52.60
2022-11-16T23:05:16.239Z,52.22
2022-11-16T23:07:43.974Z,50.42
2022-11-16T23:10:11.638Z,51.83
2022-11-16T23:12:57.518Z,53.53
2022-11-16T23:15:43.514Z,50.00
2022-11-16T23:18:10.942Z,52.10
2022-11-16T23:20:56.782Z,48.85
2022-11-16T23:23:42.851Z,47.10
2022-11-16T23:26:32.729Z,46.92
2022-11-16T23:29:00.915Z,43.80
2022-11-16T23:31:28.325Z,45.53
2022-11-16T23:33:55.779Z,44.67
2022-11-16T23:36:23.196Z,42.15
2022-11-16T23:38:50.589Z,41.80
2022-11-16T23:41:36.870Z,41.20
2022-11-16T23:44:04.420Z,40.67
2022-11-16T23:46:32.685Z,40.53
2022-11-16T23:49:00.806Z,40.38
2022-11-16T23:51:28.190Z,42.75
2022-11-16T23:53:55.934Z,39.47
2022-11-16T23:56:23.385Z,41.40
2022-11-16T23:58:50.890Z,40.03
